Casper, WY (82646)

1:54 PM MDT on August 23, 2014 (GMT -0600)
North of Casper, WY | Change Station
CLOSE
Current Station
Personal Weather Station
Location: Bar Nunn, WY
Elevation: 5276 ft
Nearby Weather Stations
Active Advisory: Special Statement

Elev 5276 ft 42.91 °N, 106.35 °W | Updated 32 seconds ago

Partly Cloudy
Partly Cloudy
66.3 °F
Feels Like 66.3 °F
N
15.8
Wind Variable Wind from NNE
Gusts 21.6 mph

Today
High -- | Low -- °F
--% Chance of Precip.
Yesterday
High -- | Low -- °F
Precip. -- in
6:19 AM 7:55 PM
Waning Crescent, 3% visible
Pressure 29.79 in
Visibility 10.0 miles
Clouds Few 4500 ft
Few 6000 ft
Dew Point 46 °F
Humidity 48%
Rainfall 0.08 in
Snow Depth Not available.
UV 10 out of 12
Pollen 6.80 out of 12
Air Quality Not available.
Flu Activity Not available.
METAR KCPR 231853Z 24015G28KT 10SM FEW045 FEW060 19/07 A2995 RMK AO2 PK WND 21030/1811 SLP087 T01890067

More Conditions Fewer Conditions

Pressure 29.79 in
Visibility 10.0 miles
Clouds Few 4500 ft
Few 6000 ft
Dew Point 46 °F
Humidity 48%
Rainfall 0.08 in
Snow Depth Not available.
UV 10 out of 12
Pollen 6.80 out of 12
Air Quality Not available.
Flu Activity Not available.
METAR KCPR 231853Z 24015G28KT 10SM FEW045 FEW060 19/07 A2995 RMK AO2 PK WND 21030/1811 SLP087 T01890067

More Conditions Fewer Conditions

10-Day Weather Forecast

Almanac

Astronomy

Aug. 23, 2014 Rise Set
Actual Time 6:19 AM MDT 7:55 PM MDT
Civil Twilight 5:49 AM MDT 8:25 PM MDT
Nautical Twilight 5:13 AM MDT 9:01 PM MDT
Astronomical Twilight 4:34 AM MDT 9:40 PM MDT
Moon 4:37 AM MDT 6:41 PM MDT
Length of Visible Light 14h 35m
Length of Day
13h 35m
Tomorrow will be 2m 44s shorter.
Waning Crescent, 3% of the Moon is Illuminated
Today
Waning Crescent
Aug 25
New
Sep 2
First Quarter
Sep 8
Full
Sep 15
Last Quarter

Today's Extremes

State Highs State Lows

Community

WunderPhotos

Upload Photos

1,746,583 photos uploaded!

WunderBlogs® & News

Nearby

Snow Depth

Station Depth Elevation
Casper Mountain 0 in 7850 ft
Reno Hill 0 in 8500 ft
Sand Lake 0 in 10050 ft
South Brush Creek 0 in 8440 ft
Townsend Creek 0 in 8700 ft

Earthquake Activity

City Distance Mag. Time & Date
No recent earthquake activity has been reported nearby.
Minimum magnitude displayed is 2.5.

Coastal Water Temperatures

Place Temperature
No Stations Reporting

Nearby Weather Stations